Last 24 Hours

Canyon Lodge - 8,343ft

5 Minute Data | America/Los_Angeles
as of 5/7/26 7:36 AM PDT
Date & Time Temp (°F) RH (%) Dew Pt (°F) Wet Bulb (°F) Wind Dir (°) Wind Spd (mph) Wind Gust (mph) Wind Gst Dir (°)
5/7/26 - 0735 48.8 36 23.3 38.7 N | 0 0.0 0.0 WNW | 299
5/7/26 - 0730 48.1 36 22.5 38.1 NNW | 328 0.0 0.8 NW | 316
5/7/26 - 0725 48.0 35 21.7 37.8 N | 0 0.0 0.0 SE | 126
5/7/26 - 0720 46.3 37 21.2 36.8 N | 0 0.0 0.0 SE | 126
5/7/26 - 0715 44.8 37 20.1 35.7 SE | 140 0.4 1.7 SE | 144
5/7/26 - 0710 45.2 37 20.6 36.0 NNW | 347 0.0 1.0 NNW | 341
5/7/26 - 0705 44.7 37 19.9 35.6 NNW | 348 0.2 2.2 N | 0
5/7/26 - 0700 44.0 37 19.7 35.2 SSE | 168 0.0 0.6 SSE | 164
5/7/26 - 0655 44.3 38 20.5 35.5 S | 186 0.0 0.8 SSW | 193
5/7/26 - 0650 44.7 38 20.7 35.8 SSE | 161 0.0 1.1 S | 186
5/7/26 - 0645 44.9 38 20.8 36.0 W | 269 0.2 1.3 W | 275
5/7/26 - 0640 44.3 38 20.2 35.5 WSW | 254 0.8 2.8 W | 266
5/7/26 - 0635 42.6 38 18.8 34.1 W | 269 0.1 1.9 W | 266
5/7/26 - 0630 42.1 37 17.7 33.6 WSW | 255 0.2 2.3 SW | 224
5/7/26 - 0625 40.7 37 16.5 32.5 E | 101 0.0 0.2 E | 101
5/7/26 - 0620 39.6 38 16.0 31.8 N | 0 0.0 0.0 NW | 317
5/7/26 - 0615 39.6 38 15.8 31.7 S | 183 0.1 1.7 SW | 219
5/7/26 - 0610 39.3 37 15.0 31.3 SSW | 210 0.1 1.5 SSW | 203
5/7/26 - 0605 39.6 36 15.0 31.6 SSW | 205 0.1 1.4 SSW | 205
5/7/26 - 0600 40.2 35 14.9 31.9 SSW | 197 1.4 4.0 SSW | 212
5/7/26 - 0555 40.0 35 14.9 31.7 SSW | 200 0.5 3.0 SSW | 198
5/7/26 - 0550 40.7 35 15.4 32.3 SSW | 209 2.0 4.6 SSW | 193
5/7/26 - 0545 41.9 36 16.9 33.3 SW | 226 0.7 2.8 SSW | 201
5/7/26 - 0540 41.9 36 16.7 33.2 WSW | 244 1.4 3.0 WSW | 240
5/7/26 - 0535 40.7 36 15.9 32.4 SSW | 213 0.7 2.5 SSW | 204
5/7/26 - 0530 41.0 36 16.3 32.7 SW | 231 0.8 3.0 WSW | 239
5/7/26 - 0525 40.9 36 16.2 32.6 SW | 218 0.7 2.5 SW | 226
5/7/26 - 0520 40.5 36 15.8 32.2 SSW | 205 0.9 4.7 SSW | 194
5/7/26 - 0515 41.6 36 16.7 33.1 WSW | 241 2.6 4.6 WSW | 246
5/7/26 - 0510 41.5 36 16.8 33.1 SW | 228 1.7 4.1 W | 261
5/7/26 - 0505 42.7 36 17.9 34.0 SW | 232 2.3 5.4 SW | 218
5/7/26 - 0500 42.3 37 17.9 33.8 SW | 228 2.0 4.5 SW | 236
5/7/26 - 0455 42.8 37 18.1 34.1 SW | 226 2.5 4.5 SSW | 206
5/7/26 - 0450 42.4 36 17.7 33.8 SW | 235 1.9 5.0 SW | 232
5/7/26 - 0445 43.0 36 18.0 34.2 WSW | 242 2.1 4.8 W | 269
5/7/26 - 0440 43.4 36 18.1 34.4 SW | 235 2.2 4.3 WSW | 240
5/7/26 - 0435 43.4 35 17.7 34.3 SW | 228 2.5 5.5 SW | 227
5/7/26 - 0430 43.0 34 16.6 33.9 SW | 230 1.9 5.3 SW | 224
5/7/26 - 0425 43.2 34 16.4 33.9 SW | 233 2.0 5.5 SW | 232
5/7/26 - 0420 42.6 34 16.0 33.5 SW | 233 1.3 3.6 SW | 229
5/7/26 - 0415 43.4 34 16.7 34.1 SW | 222 1.9 4.1 SW | 228
5/7/26 - 0410 43.4 34 16.9 34.2 SW | 230 2.1 5.2 SW | 222
5/7/26 - 0405 43.7 35 17.6 34.5 SW | 224 2.6 5.9 SW | 221
5/7/26 - 0400 43.0 35 17.4 34.1 SW | 230 1.9 5.3 SW | 223
5/7/26 - 0355 42.3 35 16.5 33.5 WSW | 241 0.5 2.0 WSW | 256
5/7/26 - 0350 43.2 34 16.5 33.9 SW | 231 1.6 5.0 SW | 224
5/7/26 - 0345 43.1 34 16.7 34.0 SW | 223 1.8 5.2 SW | 214
5/7/26 - 0340 42.9 35 17.1 33.9 SW | 226 1.1 2.7 SW | 233
5/7/26 - 0335 43.2 35 17.1 34.1 SW | 223 1.3 4.5 SSW | 192
5/7/26 - 0330 42.6 34 16.3 33.6 SW | 227 0.9 4.1 SSW | 198
5/7/26 - 0325 43.0 34 16.4 33.8 SW | 230 1.0 4.1 SW | 229
5/7/26 - 0320 43.3 34 16.6 34.0 SW | 217 1.6 4.9 SW | 217
5/7/26 - 0315 42.4 34 16.4 33.5 SW | 214 0.5 2.8 SSW | 196
5/7/26 - 0310 42.0 34 15.6 33.0 WSW | 240 0.7 3.1 WSW | 247
5/7/26 - 0305 42.5 33 15.6 33.3 WSW | 248 2.5 4.9 WSW | 249
5/7/26 - 0300 41.9 34 15.3 32.9 WSW | 246 0.6 3.2 W | 275
5/7/26 - 0255 41.4 35 15.5 32.7 SW | 234 0.5 3.8 WSW | 237
5/7/26 - 0250 42.3 34 16.0 33.3 SW | 230 1.5 3.1 SW | 232
5/7/26 - 0245 42.1 33 14.8 33.0 SW | 228 0.8 2.7 WSW | 249
5/7/26 - 0240 40.9 34 14.9 32.3 SW | 224 0.1 1.3 SW | 231
5/7/26 - 0235 41.2 34 14.8 32.4 SW | 236 0.0 0.7 SSW | 203
5/7/26 - 0230 42.4 33 15.7 33.3 WSW | 247 1.0 4.2 WSW | 246
5/7/26 - 0225 42.9 33 15.9 33.7 WSW | 244 1.6 4.2 WSW | 246
5/7/26 - 0220 42.8 33 15.5 33.5 SW | 232 1.0 3.7 WSW | 256
5/7/26 - 0215 41.6 31 13.4 32.4 SW | 222 0.2 2.6 SSW | 200
5/7/26 - 0210 41.4 32 13.7 32.3 SW | 225 0.2 2.0 SSW | 212
5/7/26 - 0205 41.9 32 14.2 32.7 SW | 230 0.6 3.8 WSW | 239
5/7/26 - 0200 42.0 32 14.5 32.8 SW | 236 0.6 3.0 SW | 232
5/7/26 - 0155 42.7 32 14.6 33.2 SW | 233 1.4 3.4 SW | 231
5/7/26 - 0150 41.9 32 14.1 32.7 SW | 226 0.5 2.0 SW | 231
5/7/26 - 0145 42.4 32 14.8 33.2 SW | 221 1.4 3.5 SSW | 211
5/7/26 - 0140 41.5 32 13.8 32.4 SSW | 205 0.4 2.1 SSW | 213
5/7/26 - 0135 42.0 31 13.8 32.7 W | 260 0.0 2.1 WSW | 248
5/7/26 - 0130 43.0 32 14.9 33.5 SW | 235 1.5 4.1 WSW | 242
5/7/26 - 0125 42.0 31 13.8 32.7 SW | 215 0.8 3.1 SSW | 213
5/7/26 - 0120 40.9 31 12.6 31.8 SSW | 195 0.2 1.3 SSW | 193
5/7/26 - 0115 40.6 31 12.1 31.5 N | 0 0.0 0.0 NE | 47
5/7/26 - 0110 40.9 31 12.3 31.8 SSW | 202 0.4 2.6 SSW | 194
5/7/26 - 0105 41.5 30 12.3 32.1 SSW | 203 1.2 3.9 S | 180
5/7/26 - 0100 41.9 30 12.5 32.4 SSW | 204 1.1 3.6 S | 183
5/7/26 - 0055 42.4 30 13.0 32.8 SSW | 193 1.0 3.7 SSE | 166
5/7/26 - 0050 43.0 29 13.2 33.2 SSW | 196 0.8 2.9 SSW | 198
5/7/26 - 0045 43.3 30 13.7 33.4 SSW | 200 1.0 3.0 SW | 217
5/7/26 - 0040 43.4 31 14.5 33.6 SW | 214 0.6 2.8 SSW | 205
5/7/26 - 0035 43.0 32 15.4 33.6 SSW | 204 1.1 4.3 SSW | 200
5/7/26 - 0030 43.2 32 15.0 33.6 SW | 236 1.0 2.3 WSW | 239
5/7/26 - 0025 43.1 31 14.7 33.5 WSW | 248 0.5 2.2 W | 262
5/7/26 - 0020 43.4 32 15.2 33.8 W | 260 1.4 3.4 W | 260
5/7/26 - 0015 43.6 30 14.0 33.7 WSW | 257 1.3 3.6 WSW | 254
5/7/26 - 0010 43.4 30 14.0 33.5 WSW | 258 1.4 3.5 W | 262
5/7/26 - 0005 43.6 30 14.3 33.7 WSW | 258 1.2 3.9 W | 265
5/7/26 - 0000 43.9 31 14.9 34.0 WSW | 248 1.5 3.8 WSW | 252
5/6/26 - 2355 44.0 31 15.1 34.1 WSW | 255 1.5 3.6 WSW | 258
5/6/26 - 2350 44.0 30 14.8 34.0 W | 261 1.7 3.4 W | 262
5/6/26 - 2345 44.1 30 14.8 34.1 WSW | 254 1.9 3.4 WSW | 249
5/6/26 - 2340 44.3 30 14.8 34.2 WSW | 252 1.6 3.9 WSW | 245
5/6/26 - 2335 43.9 29 13.8 33.8 WSW | 252 1.4 3.1 W | 263
5/6/26 - 2330 44.1 30 14.3 34.0 WSW | 258 1.1 2.4 SW | 233
5/6/26 - 2325 43.7 31 14.8 33.9 WSW | 254 1.8 4.5 WSW | 255
5/6/26 - 2320 43.7 30 14.3 33.8 WSW | 253 1.2 3.0 WSW | 246
5/6/26 - 2315 43.5 30 14.0 33.6 WSW | 254 0.7 2.1 WSW | 258
5/6/26 - 2310 43.6 29 13.5 33.6 WSW | 255 0.9 2.9 W | 264
5/6/26 - 2305 44.0 29 13.6 33.8 WSW | 251 1.1 3.1 WSW | 257
5/6/26 - 2300 44.3 29 14.1 34.1 WSW | 248 1.2 4.0 WSW | 244
5/6/26 - 2255 44.4 28 13.7 34.1 WSW | 240 1.2 3.9 W | 261
5/6/26 - 2250 44.2 29 13.6 33.9 WSW | 257 0.7 3.0 W | 266
5/6/26 - 2245 44.3 29 13.8 34.0 WSW | 258 1.1 3.2 SW | 233
5/6/26 - 2240 44.8 28 13.7 34.3 WSW | 243 0.9 3.2 WSW | 255
5/6/26 - 2235 44.7 28 13.4 34.1 WSW | 249 0.6 2.6 SSW | 203
5/6/26 - 2230 44.8 27 13.1 34.2 WSW | 243 0.3 2.7 WSW | 248
5/6/26 - 2225 44.4 28 13.2 34.0 WSW | 250 2.4 3.7 WSW | 256
5/6/26 - 2220 44.2 27 12.1 33.6 WSW | 258 1.4 3.4 W | 266
5/6/26 - 2215 44.6 27 12.6 33.9 WSW | 258 2.0 4.2 WSW | 253
5/6/26 - 2210 44.8 27 12.9 34.1 WSW | 247 0.8 2.7 WSW | 257
5/6/26 - 2205 44.9 27 13.2 34.2 SW | 232 - - SSW | 198
5/6/26 - 2200 44.9 28 13.4 34.3 WSW | 257 0.6 3.0 W | 260
5/6/26 - 2155 45.4 27 13.5 34.6 WSW | 251 1.3 3.6 WSW | 255
5/6/26 - 2150 45.0 27 13.0 34.2 WSW | 250 0.3 2.2 WSW | 250
5/6/26 - 2145 45.3 27 13.2 34.4 WSW | 252 0.5 2.6 W | 262
5/6/26 - 2140 45.3 27 13.5 34.5 WSW | 258 1.2 3.0 W | 266
5/6/26 - 2135 46.0 27 14.2 35.0 W | 260 0.9 2.2 W | 265
5/6/26 - 2130 45.6 27 13.8 34.8 WSW | 250 0.4 2.6 WSW | 249
5/6/26 - 2125 46.0 27 14.1 35.0 WSW | 257 0.8 2.5 WSW | 256
5/6/26 - 2120 46.3 27 13.9 35.2 WSW | 254 0.4 2.3 W | 260
5/6/26 - 2115 46.3 27 13.9 35.2 WSW | 252 0.5 2.1 WSW | 249
5/6/26 - 2110 46.3 27 14.0 35.2 WSW | 249 1.0 2.7 WSW | 254
5/6/26 - 2105 47.0 26 14.1 35.6 WSW | 258 1.7 3.1 WSW | 255
5/6/26 - 2100 46.7 26 13.5 35.3 WSW | 257 2.0 3.7 WSW | 251
5/6/26 - 2055 47.3 26 14.3 35.7 WSW | 248 1.0 3.6 WSW | 249
5/6/26 - 2050 47.4 26 14.4 35.8 WSW | 238 0.2 1.8 WSW | 243
5/6/26 - 2045 47.9 26 14.4 36.1 W | 259 1.3 3.6 W | 263
5/6/26 - 2040 48.1 26 14.4 36.2 W | 264 0.9 3.4 WSW | 257
5/6/26 - 2035 48.1 25 14.3 36.2 WSW | 238 0.3 2.0 WSW | 252
5/6/26 - 2030 48.4 26 15.0 36.5 WSW | 258 0.9 3.6 WSW | 255
5/6/26 - 2025 49.0 25 14.9 36.8 WSW | 258 1.4 4.9 W | 260
5/6/26 - 2020 49.4 25 15.1 37.0 W | 262 2.6 5.3 W | 264
5/6/26 - 2015 49.0 25 14.7 36.8 W | 263 3.0 5.8 W | 262
5/6/26 - 2010 49.5 25 14.8 37.0 W | 259 2.6 4.5 W | 260
5/6/26 - 2005 49.0 24 14.2 36.7 W | 266 2.3 5.1 W | 268
5/6/26 - 2000 49.3 24 14.2 36.8 WSW | 258 1.8 3.5 WSW | 256
5/6/26 - 1955 49.7 24 14.6 37.1 W | 261 1.5 3.5 WSW | 257
5/6/26 - 1950 49.6 24 14.5 37.0 WSW | 237 0.7 3.0 WSW | 249
5/6/26 - 1945 49.6 24 14.4 37.0 SW | 236 2.1 4.6 WSW | 250
5/6/26 - 1940 50.6 24 15.5 37.7 WSW | 258 1.3 4.9 WSW | 257
5/6/26 - 1935 51.3 24 16.0 38.2 WSW | 254 2.6 5.3 WSW | 248
5/6/26 - 1930 53.7 25 18.3 39.9 WNW | 282 1.3 4.3 NW | 323
5/6/26 - 1925 54.3 25 19.0 40.4 WNW | 292 1.2 5.1 WNW | 285
5/6/26 - 1920 55.0 25 20.1 41.0 NW | 310 1.4 3.7 NW | 316
5/6/26 - 1915 55.1 25 20.1 41.0 WNW | 302 1.4 4.9 NW | 312
5/6/26 - 1910 55.5 25 20.3 41.2 WNW | 293 1.7 5.3 NW | 314
5/6/26 - 1905 55.4 25 20.1 41.1 NW | 305 1.4 4.6 WNW | 282
5/6/26 - 1900 55.4 25 20.2 41.2 WNW | 297 0.9 2.9 N | 5
5/6/26 - 1855 55.7 25 20.7 41.4 NW | 304 2.3 5.0 NW | 315
5/6/26 - 1850 56.3 25 21.0 41.8 N | 359 2.6 7.9 NNE | 21
5/6/26 - 1845 56.3 26 21.5 41.9 NNW | 336 4.3 10.2 NNE | 23
5/6/26 - 1840 56.3 26 22.1 42.1 NW | 323 1.9 5.5 WNW | 301
5/6/26 - 1835 56.4 26 21.9 42.0 NW | 305 1.4 6.4 NW | 322
5/6/26 - 1830 56.9 24 20.9 42.0 NNW | 346 1.5 5.3 N | 0
5/6/26 - 1825 57.2 24 20.9 42.2 NNE | 14 4.1 11.9 N | 4
5/6/26 - 1820 57.6 24 21.1 42.4 NNE | 12 3.8 9.2 N | 352
5/6/26 - 1815 57.7 24 21.5 42.6 NNE | 15 2.6 8.6 N | 9
5/6/26 - 1810 57.6 25 21.6 42.5 NNE | 15 3.7 9.9 NNE | 27
5/6/26 - 1805 57.7 25 21.9 42.6 NNW | 337 3.3 8.2 NW | 312
5/6/26 - 1800 57.7 25 22.2 42.7 NW | 309 1.5 7.8 WNW | 290
5/6/26 - 1755 58.0 25 22.1 42.8 N | 6 1.4 6.4 NNE | 29
5/6/26 - 1750 58.3 25 23.0 43.2 NNW | 333 3.7 9.0 NNW | 333
5/6/26 - 1745 58.5 25 22.8 43.2 N | 354 3.1 9.2 N | 0
5/6/26 - 1740 58.3 25 22.8 43.1 N | 350 2.1 6.8 N | 0
5/6/26 - 1735 59.0 25 23.5 43.6 NNE | 23 1.8 6.1 N | 10
5/6/26 - 1730 59.1 25 23.8 43.8 N | 352 1.9 5.5 NW | 317
5/6/26 - 1725 58.8 26 23.8 43.6 N | 1 5.0 8.5 NW | 323
5/6/26 - 1720 59.5 26 24.7 44.2 NNW | 342 3.6 11.0 N | 0
5/6/26 - 1715 59.0 26 24.3 43.8 NNW | 334 6.3 12.0 NNW | 330
5/6/26 - 1710 58.5 26 23.7 43.5 NNW | 332 2.4 8.8 N | 0
5/6/26 - 1705 58.1 26 23.8 43.3 NNW | 341 4.1 9.8 NW | 312
5/6/26 - 1700 57.7 26 22.8 42.8 N | 8 1.5 5.4 NE | 36
5/6/26 - 1655 58.6 26 23.9 43.6 N | 358 3.3 8.4 NNE | 23
5/6/26 - 1650 58.2 26 23.3 43.2 N | 350 2.4 6.3 N | 2
5/6/26 - 1645 57.7 26 23.0 42.9 N | 5 5.0 9.9 NNE | 26
5/6/26 - 1640 58.2 26 23.5 43.3 N | 360 3.8 8.6 NW | 326
5/6/26 - 1635 57.8 26 23.5 43.1 N | 355 4.9 12.8 NNE | 24
5/6/26 - 1630 58.7 27 25.0 43.9 NNW | 338 2.8 7.5 N | 0
5/6/26 - 1625 58.4 27 24.2 43.6 NNW | 338 2.3 10.3 NNW | 344
5/6/26 - 1620 58.0 25 22.4 42.9 N | 1 4.3 11.0 NNW | 339
5/6/26 - 1615 57.7 25 22.0 42.7 NNE | 24 6.1 12.3 NNE | 19
5/6/26 - 1610 58.2 26 23.3 43.2 NNW | 345 5.9 11.6 NW | 312
5/6/26 - 1605 58.4 26 23.5 43.4 N | 8 3.5 9.1 NNE | 15
5/6/26 - 1600 59.9 26 25.3 44.5 SSW | 195 1.3 6.6 ESE | 123
5/6/26 - 1555 58.3 26 23.2 43.2 NNE | 23 4.1 9.3 N | 3
5/6/26 - 1550 58.4 26 24.0 43.5 NNW | 346 3.0 9.4 N | 9
5/6/26 - 1545 58.5 26 24.2 43.6 NNW | 337 1.2 6.0 N | 0
5/6/26 - 1540 57.8 26 23.5 43.1 N | 357 2.7 10.4 N | 0
5/6/26 - 1535 58.3 27 24.2 43.5 NNE | 28 1.5 4.1 N | 9
5/6/26 - 1530 57.6 27 23.8 43.1 N | 350 5.4 11.4 N | 353
5/6/26 - 1525 57.4 27 23.2 42.8 NNE | 23 5.6 16.4 NNE | 26
5/6/26 - 1520 57.5 26 23.0 42.8 NNE | 24 2.6 6.6 N | 9
5/6/26 - 1515 57.7 27 23.6 43.1 NNE | 19 0.7 3.1 N | 4
5/6/26 - 1510 57.8 27 24.0 43.2 NNE | 23 1.0 4.9 NNE | 19
5/6/26 - 1505 57.4 27 23.5 42.9 NNE | 24 2.1 7.5 ENE | 75
5/6/26 - 1500 58.1 28 24.8 43.6 NNE | 18 3.5 7.2 NNE | 19
5/6/26 - 1455 58.1 28 25.5 43.8 NW | 316 1.2 6.0 NW | 311
5/6/26 - 1450 57.4 29 25.2 43.4 NNW | 338 4.8 14.1 NW | 309
5/6/26 - 1445 57.2 29 25.2 43.3 NNE | 26 3.4 13.7 NNE | 16
5/6/26 - 1440 56.7 29 24.8 42.9 N | 9 2.7 8.9 NNE | 15
5/6/26 - 1435 58.2 29 26.3 44.0 NW | 315 2.3 7.9 NW | 317
5/6/26 - 1430 56.9 29 24.8 43.0 NNE | 12 4.1 10.3 N | 6
5/6/26 - 1425 55.8 29 24.1 42.4 N | 6 5.2 12.2 N | 351
5/6/26 - 1420 57.1 29 25.3 43.3 NE | 46 1.7 6.3 ESE | 116
5/6/26 - 1415 57.4 29 25.4 43.4 ESE | 112 1.3 5.5 NNE | 12
5/6/26 - 1410 55.5 28 23.1 41.9 NNE | 14 4.8 8.0 N | 8
5/6/26 - 1405 55.6 29 24.1 42.3 N | 3 3.1 10.7 NNE | 14
5/6/26 - 1400 56.0 30 25.0 42.7 N | 7 1.4 5.4 N | 0
5/6/26 - 1355 56.0 30 25.1 42.7 NNW | 336 3.4 8.1 NW | 314
5/6/26 - 1350 55.7 31 25.6 42.7 NNW | 339 3.8 13.1 NW | 316
5/6/26 - 1345 57.2 30 26.1 43.6 NE | 44 0.6 3.6 N | 9
5/6/26 - 1340 56.0 30 25.3 42.8 N | 351 3.5 10.2 NNW | 346
5/6/26 - 1335 55.0 30 24.3 42.0 NNW | 339 2.9 11.4 NW | 314
5/6/26 - 1330 54.8 30 24.1 41.9 N | 349 3.4 10.3 NW | 323
5/6/26 - 1325 54.0 31 23.8 41.4 N | 5 6.0 14.3 NNE | 26
5/6/26 - 1320 55.7 32 26.4 43.0 NE | 42 0.5 2.6 NNE | 24
5/6/26 - 1315 54.8 33 25.9 42.4 N | 357 1.3 6.1 NE | 38
5/6/26 - 1310 54.1 32 24.7 41.7 N | 350 4.0 10.5 N | 353
5/6/26 - 1305 54.2 33 25.9 42.1 N | 2 5.3 12.9 N | 2
5/6/26 - 1300 54.3 34 26.4 42.3 NW | 319 3.1 9.8 WNW | 299
5/6/26 - 1255 54.0 34 26.3 42.1 NW | 318 6.6 12.8 NNW | 342
5/6/26 - 1250 54.1 34 26.2 42.2 NW | 322 3.0 7.9 NNW | 328
5/6/26 - 1245 53.5 33 25.1 41.5 N | 352 6.8 11.8 NNW | 347
5/6/26 - 1240 55.1 32 25.8 42.5 NNE | 12 3.6 10.4 N | 6
5/6/26 - 1235 53.4 33 25.2 41.5 NW | 326 5.5 12.4 NW | 321
5/6/26 - 1230 53.0 33 24.7 41.2 NNE | 25 4.0 13.0 NNE | 16
5/6/26 - 1225 53.4 34 25.6 41.6 NW | 320 1.6 8.4 NNW | 334
5/6/26 - 1220 54.3 33 26.2 42.2 NW | 309 2.0 8.2 NW | 324
5/6/26 - 1215 53.8 34 26.3 42.1 NW | 306 1.7 8.7 NW | 310
5/6/26 - 1210 54.3 35 27.1 42.5 NNW | 331 4.3 12.3 NNW | 333
5/6/26 - 1205 53.1 34 25.2 41.4 NNE | 23 3.1 9.8 NE | 39
5/6/26 - 1200 53.9 35 26.6 42.2 N | 360 4.1 12.5 NNE | 24
5/6/26 - 1155 53.5 34 26.0 41.8 N | 4 4.6 12.5 NNE | 21
5/6/26 - 1150 53.6 34 26.2 41.9 NNE | 13 1.6 10.1 N | 0
5/6/26 - 1145 52.3 35 25.4 41.0 N | 349 3.6 11.0 NE | 45
5/6/26 - 1140 52.2 33 24.0 40.6 NNE | 20 4.5 12.2 NNE | 30
5/6/26 - 1135 53.1 34 25.2 41.4 NNE | 23 2.7 7.5 N | 2
5/6/26 - 1130 52.8 35 25.9 41.4 NNE | 14 3.8 12.5 NNE | 20
5/6/26 - 1125 52.2 36 26.0 41.2 NW | 321 5.8 12.8 WNW | 301
5/6/26 - 1120 52.2 36 26.2 41.2 NNW | 334 6.8 14.6 NW | 316
5/6/26 - 1115 51.5 36 25.2 40.6 NNE | 12 3.9 11.3 NNE | 25
5/6/26 - 1110 52.0 35 25.0 40.8 NNE | 25 4.0 14.8 NNE | 24
5/6/26 - 1105 51.3 35 24.5 40.3 N | 9 7.3 15.4 N | 0
5/6/26 - 1100 51.6 35 24.8 40.5 NNE | 14 4.2 12.4 NNE | 22
5/6/26 - 1055 52.4 34 24.9 41.0 NNW | 346 3.3 9.8 NNE | 30
5/6/26 - 1050 51.8 34 24.2 40.5 N | 9 2.2 5.9 NNE | 22
5/6/26 - 1045 51.7 34 24.1 40.4 NNE | 18 5.0 13.2 NNW | 343
5/6/26 - 1040 51.5 34 24.1 40.3 NNE | 24 4.7 13.0 N | 1
5/6/26 - 1035 51.7 35 24.9 40.6 NNE | 23 4.9 15.2 N | 1
5/6/26 - 1030 51.3 36 25.3 40.5 NNE | 22 3.3 10.9 NE | 34
5/6/26 - 1025 50.7 36 24.8 40.1 N | 11 3.9 12.2 NNE | 29
5/6/26 - 1020 50.1 35 23.8 39.5 NNW | 340 4.7 11.2 NNW | 339
5/6/26 - 1015 50.1 34 23.1 39.3 NNE | 27 4.9 17.5 N | 11
5/6/26 - 1010 51.0 35 24.6 40.2 ENE | 71 3.2 13.1 E | 92
5/6/26 - 1005 51.3 36 25.1 40.4 ENE | 68 3.2 10.4 E | 82
5/6/26 - 1000 50.6 36 24.9 40.0 N | 3 4.1 9.1 NNE | 32
5/6/26 - 0955 51.2 38 26.3 40.8 NNE | 24 2.3 13.9 NNE | 24
5/6/26 - 0950 50.0 38 25.7 40.0 NNW | 340 4.1 9.7 NW | 308
5/6/26 - 0945 49.2 39 25.0 39.4 NW | 321 5.6 10.6 WNW | 301
5/6/26 - 0940 49.3 38 24.7 39.3 NNW | 341 3.4 7.3 NW | 308
5/6/26 - 0935 48.8 38 24.2 38.9 N | 350 4.7 9.5 NNE | 15
5/6/26 - 0930 48.9 38 24.2 39.0 NNW | 347 4.7 11.4 NNW | 330
5/6/26 - 0925 50.2 37 25.0 39.9 NNE | 14 2.7 6.7 NE | 38
5/6/26 - 0920 49.2 37 24.2 39.2 NNE | 27 3.4 9.0 NNE | 32
5/6/26 - 0915 49.5 37 24.6 39.4 N | 6 2.8 7.1 NE | 41
5/6/26 - 0910 49.2 38 24.7 39.3 NNW | 332 5.6 11.0 N | 1
5/6/26 - 0905 48.3 37 23.5 38.5 N | 354 4.2 7.7 NNW | 332
5/6/26 - 0900 48.6 36 23.0 38.5 N | 350 1.8 6.8 NNW | 347
5/6/26 - 0855 48.1 36 22.4 38.1 NNE | 18 3.3 7.3 NE | 41
5/6/26 - 0850 48.0 36 22.2 38.0 NNE | 26 3.9 8.2 NNE | 21
5/6/26 - 0845 48.2 37 23.0 38.3 N | 356 3.2 8.6 NNE | 17
5/6/26 - 0840 47.8 37 22.7 38.0 NNE | 25 3.1 9.9 N | 1
5/6/26 - 0835 47.7 37 22.6 38.0 NNE | 25 4.8 10.1 NE | 43
5/6/26 - 0830 47.7 38 23.3 38.1 NNW | 346 4.5 8.6 NNW | 345
5/6/26 - 0825 47.8 38 23.4 38.2 NNE | 13 2.9 10.1 N | 8
5/6/26 - 0820 47.2 38 22.8 37.7 N | 0 3.7 6.6 N | 0
5/6/26 - 0815 47.0 38 22.9 37.6 N | 4 4.5 8.7 N | 353
5/6/26 - 0810 47.0 38 22.7 37.6 NE | 36 4.8 9.9 N | 0
5/6/26 - 0805 46.9 38 22.6 37.5 NNE | 17 3.2 7.0 N | 7
5/6/26 - 0800 46.7 39 22.9 37.5 NNE | 14 4.1 9.0 NNE | 27
5/6/26 - 0755 46.8 40 23.7 37.8 N | 356 1.8 4.5 NW | 312
5/6/26 - 0750 47.0 40 23.8 37.9 N | 3 0.1 2.2 N | 8
5/6/26 - 0745 45.7 41 23.4 37.1 NNW | 332 2.1 4.6 NNW | 341
5/6/26 - 0740 44.3 40 21.7 35.8 NNW | 329 0.7 4.1 NW | 319
5/6/26 - 0735 44.1 39 20.7 35.5 N | 359 0.8 4.7 N | 0
Max 59.9 41 27.1 44.5 - 7.3 17.5 -
Avg 49.0 31 19.6 37.8 - 2.2 6.1 -
Min 39.3 24 12.1 31.3 - 0.0 0.0 -